createdAt,value
2022-12-25T00:00:08.736Z,31.40
2022-12-25T00:01:08.556Z,34.00
2022-12-25T00:02:08.514Z,29.20
2022-12-25T00:03:08.634Z,32.90
2022-12-25T00:04:08.631Z,31.90
2022-12-25T00:05:08.523Z,30.20
2022-12-25T00:06:08.491Z,32.00
2022-12-25T00:07:08.508Z,29.50
2022-12-25T00:08:08.425Z,30.50
2022-12-25T00:09:08.445Z,30.60
2022-12-25T00:10:08.443Z,30.80
2022-12-25T00:11:08.420Z,31.90
2022-12-25T00:12:08.427Z,28.30
2022-12-25T00:13:08.405Z,23.90
2022-12-25T00:14:08.378Z,24.80
2022-12-25T00:15:08.400Z,42.70
2022-12-25T00:16:08.425Z,25.90
2022-12-25T00:17:08.360Z,28.00
2022-12-25T00:18:08.330Z,27.10
2022-12-25T00:19:08.382Z,28.90
2022-12-25T00:20:08.333Z,31.00
2022-12-25T00:21:08.335Z,27.90
2022-12-25T00:22:08.281Z,29.00
2022-12-25T00:23:08.307Z,32.20
2022-12-25T00:24:08.297Z,27.20
2022-12-25T00:25:08.274Z,29.90
2022-12-25T00:26:08.270Z,27.60
2022-12-25T00:27:08.267Z,34.90
2022-12-25T00:28:08.224Z,24.90
2022-12-25T00:29:08.246Z,32.70
2022-12-25T00:30:08.199Z,26.40
2022-12-25T00:31:08.296Z,26.90
2022-12-25T00:32:08.202Z,28.20
2022-12-25T00:33:08.191Z,23.70
2022-12-25T00:34:08.208Z,25.50
2022-12-25T00:35:08.196Z,28.50
2022-12-25T00:36:08.142Z,28.30
2022-12-25T00:37:08.167Z,25.10
2022-12-25T00:38:08.132Z,27.20
2022-12-25T00:39:08.136Z,27.20
2022-12-25T00:40:08.103Z,29.20
2022-12-25T00:41:08.121Z,24.50
2022-12-25T00:42:08.106Z,24.70
2022-12-25T00:43:08.115Z,27.30
2022-12-25T00:44:08.052Z,25.50
2022-12-25T00:45:08.083Z,26.50
2022-12-25T00:46:08.088Z,25.90
2022-12-25T00:47:08.087Z,26.80
2022-12-25T00:48:08.061Z,26.70
2022-12-25T00:49:08.015Z,25.90
2022-12-25T00:50:08.042Z,24.90
2022-12-25T00:51:07.978Z,28.40
2022-12-25T00:52:08.007Z,26.50
2022-12-25T00:53:07.970Z,24.50
2022-12-25T00:54:08.015Z,28.10
2022-12-25T00:55:07.944Z,31.40
2022-12-25T00:56:07.955Z,27.70
2022-12-25T00:57:07.943Z,29.60
2022-12-25T00:58:07.931Z,22.50
2022-12-25T00:59:07.913Z,27.30
2022-12-25T01:00:07.920Z,28.50
2022-12-25T01:01:07.945Z,24.40
2022-12-25T01:02:08.069Z,26.20
2022-12-25T01:03:07.949Z,29.00
2022-12-25T01:04:07.879Z,23.60
2022-12-25T01:05:07.858Z,27.60
2022-12-25T01:06:07.850Z,24.50
2022-12-25T01:07:07.826Z,25.00
2022-12-25T01:08:07.847Z,22.90
2022-12-25T01:09:07.793Z,23.10
2022-12-25T01:10:07.830Z,24.70
2022-12-25T01:11:07.797Z,25.70
2022-12-25T01:12:07.799Z,27.70
2022-12-25T01:13:07.756Z,25.50
2022-12-25T01:14:07.772Z,22.10
2022-12-25T01:15:07.741Z,26.80
2022-12-25T01:16:07.853Z,22.70
2022-12-25T01:17:07.717Z,23.80
2022-12-25T01:18:08.008Z,23.60
2022-12-25T01:19:07.700Z,22.90
2022-12-25T01:20:07.696Z,25.60
2022-12-25T01:21:07.692Z,21.30
2022-12-25T01:22:07.675Z,22.90
2022-12-25T01:23:07.642Z,25.60
2022-12-25T01:24:07.656Z,23.20
2022-12-25T01:25:07.633Z,25.00
2022-12-25T01:26:07.681Z,20.80
2022-12-25T01:27:07.615Z,22.90
2022-12-25T01:28:07.609Z,21.30
2022-12-25T01:29:07.590Z,23.80
2022-12-25T01:30:07.637Z,21.50
2022-12-25T01:31:07.567Z,23.30
2022-12-25T01:32:07.694Z,21.10
2022-12-25T01:33:07.541Z,24.20
2022-12-25T01:34:07.550Z,21.60
2022-12-25T01:35:07.539Z,21.20
2022-12-25T01:36:07.526Z,20.60
2022-12-25T01:37:07.496Z,23.60
2022-12-25T01:38:07.529Z,22.50
2022-12-25T01:39:07.478Z,23.30
2022-12-25T01:40:07.487Z,23.40
2022-12-25T01:41:07.454Z,21.00
2022-12-25T01:42:07.503Z,23.30
2022-12-25T01:43:07.473Z,20.30
2022-12-25T01:44:07.464Z,26.10
2022-12-25T01:45:07.436Z,21.40
2022-12-25T01:46:07.544Z,24.00
2022-12-25T01:47:07.403Z,21.60
2022-12-25T01:48:07.435Z,22.10
2022-12-25T01:49:07.383Z,21.80
2022-12-25T01:50:07.384Z,21.30
2022-12-25T01:51:07.378Z,20.80
2022-12-25T01:52:07.363Z,18.70
2022-12-25T01:53:07.325Z,20.10
2022-12-25T01:54:07.367Z,24.60
2022-12-25T01:55:07.314Z,19.30
2022-12-25T01:56:07.314Z,19.80
2022-12-25T01:57:07.303Z,20.30
2022-12-25T01:58:07.295Z,19.00
2022-12-25T01:59:07.279Z,21.40
2022-12-25T02:00:07.290Z,18.80
2022-12-25T02:01:07.303Z,20.60
2022-12-25T02:02:07.380Z,20.80
2022-12-25T02:03:07.290Z,20.50
2022-12-25T02:04:07.294Z,19.90
2022-12-25T02:05:07.229Z,22.40
2022-12-25T02:06:07.209Z,20.90
2022-12-25T02:07:07.190Z,20.40
2022-12-25T02:08:07.211Z,19.60
2022-12-25T02:09:07.156Z,20.40
2022-12-25T02:10:07.172Z,19.90
2022-12-25T02:11:07.152Z,19.00
2022-12-25T02:12:07.155Z,21.90
2022-12-25T02:13:07.127Z,21.30
2022-12-25T02:14:07.129Z,22.60
2022-12-25T02:15:07.104Z,20.80
2022-12-25T02:16:07.172Z,20.40
2022-12-25T02:17:07.176Z,18.20
2022-12-25T02:18:07.088Z,22.40
2022-12-25T02:19:07.061Z,19.10
2022-12-25T02:20:07.068Z,16.80
2022-12-25T02:21:07.031Z,19.80
2022-12-25T02:22:07.058Z,19.70
2022-12-25T02:23:07.025Z,21.40
2022-12-25T02:24:07.023Z,18.80
2022-12-25T02:25:06.988Z,19.40
2022-12-25T02:26:07.005Z,21.10
2022-12-25T02:27:07.022Z,20.30
2022-12-25T02:28:06.979Z,19.90
2022-12-25T02:29:06.949Z,21.00
2022-12-25T02:30:06.971Z,19.20
2022-12-25T02:31:06.935Z,20.20
2022-12-25T02:32:07.048Z,20.40
2022-12-25T02:33:06.915Z,19.10
2022-12-25T02:34:06.956Z,19.40
2022-12-25T02:35:06.905Z,19.10
2022-12-25T02:36:06.898Z,18.60
2022-12-25T02:37:06.870Z,17.50
2022-12-25T02:38:06.895Z,17.40
2022-12-25T02:39:06.848Z,20.40
2022-12-25T02:40:06.869Z,19.50
2022-12-25T02:41:06.834Z,17.80
2022-12-25T02:42:06.843Z,19.20
2022-12-25T02:43:06.814Z,17.20
2022-12-25T02:44:06.830Z,16.70
2022-12-25T02:45:06.782Z,18.10
2022-12-25T02:46:06.874Z,18.30
2022-12-25T02:47:06.764Z,18.60
2022-12-25T02:48:06.783Z,19.30
2022-12-25T02:49:06.776Z,20.00
2022-12-25T02:50:06.745Z,21.50
2022-12-25T02:51:06.716Z,18.70
2022-12-25T02:52:06.755Z,18.60
2022-12-25T02:53:06.697Z,20.40
2022-12-25T02:54:06.757Z,21.80
2022-12-25T02:55:06.697Z,19.50
2022-12-25T02:56:06.702Z,25.40
2022-12-25T02:57:06.656Z,30.70
2022-12-25T02:58:06.677Z,29.90
2022-12-25T02:59:06.635Z,36.10
2022-12-25T03:00:06.661Z,28.20
2022-12-25T03:01:06.659Z,23.70
2022-12-25T03:02:06.760Z,27.50
2022-12-25T03:03:06.678Z,28.90
2022-12-25T03:04:06.603Z,26.30
2022-12-25T03:05:06.579Z,23.30
2022-12-25T03:06:06.602Z,26.10
2022-12-25T03:07:06.561Z,27.10
2022-12-25T03:08:06.586Z,30.20
2022-12-25T03:09:06.534Z,30.90
2022-12-25T03:10:06.574Z,31.30
2022-12-25T03:11:07.108Z,24.80
2022-12-25T03:12:06.519Z,28.10
2022-12-25T03:13:06.545Z,28.00
2022-12-25T03:14:06.494Z,23.50
2022-12-25T03:15:06.465Z,20.40
2022-12-25T03:16:06.473Z,23.20
2022-12-25T03:17:06.522Z,19.70
2022-12-25T03:18:06.461Z,18.60
2022-12-25T03:19:06.455Z,19.10
2022-12-25T03:20:06.443Z,18.40
2022-12-25T03:21:06.416Z,18.40
2022-12-25T03:22:06.469Z,16.80
2022-12-25T03:23:06.390Z,17.00
2022-12-25T03:24:06.388Z,15.70
2022-12-25T03:25:06.429Z,15.10
2022-12-25T03:26:06.376Z,15.70
2022-12-25T03:27:06.347Z,16.10
2022-12-25T03:28:06.378Z,18.00
2022-12-25T03:29:06.319Z,15.00
2022-12-25T03:30:06.334Z,17.90
2022-12-25T03:31:06.390Z,19.10
2022-12-25T03:32:06.311Z,16.10
2022-12-25T03:33:23.314Z,15.10
2022-12-25T03:34:06.302Z,15.80
2022-12-25T03:35:06.557Z,16.60
2022-12-25T03:36:06.262Z,17.00
2022-12-25T03:37:06.251Z,14.10
2022-12-25T03:38:06.252Z,15.80
2022-12-25T03:39:06.222Z,17.80
2022-12-25T03:40:06.225Z,16.90
2022-12-25T03:41:06.238Z,15.40
2022-12-25T03:42:06.202Z,16.10
2022-12-25T03:43:06.180Z,14.50
2022-12-25T03:44:06.216Z,15.90
2022-12-25T03:45:06.151Z,13.30
2022-12-25T03:46:06.207Z,15.10
2022-12-25T03:47:06.134Z,17.70
2022-12-25T03:48:06.170Z,15.30
2022-12-25T03:49:06.110Z,16.50
2022-12-25T03:50:06.139Z,16.00
2022-12-25T03:51:06.098Z,15.20
2022-12-25T03:52:06.095Z,14.40
2022-12-25T03:53:06.063Z,16.30
2022-12-25T03:54:06.077Z,14.60
2022-12-25T03:55:06.101Z,15.40
2022-12-25T03:56:06.055Z,15.80
2022-12-25T03:57:06.047Z,14.10
2022-12-25T03:58:06.051Z,16.30
2022-12-25T03:59:06.009Z,16.80
2022-12-25T04:00:06.022Z,15.00
2022-12-25T04:01:06.068Z,17.20
2022-12-25T04:02:06.151Z,17.20
2022-12-25T04:03:06.028Z,16.30
2022-12-25T04:04:05.995Z,16.00
2022-12-25T04:05:05.954Z,16.30
2022-12-25T04:06:05.995Z,15.10
2022-12-25T04:07:05.926Z,18.30
2022-12-25T04:08:05.934Z,16.70
2022-12-25T04:09:05.917Z,14.50
2022-12-25T04:10:05.948Z,15.00
2022-12-25T04:11:05.877Z,13.30
2022-12-25T04:12:05.919Z,13.70
2022-12-25T04:13:05.867Z,14.60
2022-12-25T04:14:05.878Z,15.20
2022-12-25T04:15:05.843Z,13.90
2022-12-25T04:16:05.970Z,17.00
2022-12-25T04:17:05.845Z,16.70
2022-12-25T04:18:05.832Z,14.90
2022-12-25T04:19:05.811Z,16.30
2022-12-25T04:20:05.817Z,14.90
2022-12-25T04:21:05.780Z,15.00
2022-12-25T04:22:05.784Z,17.30
2022-12-25T04:23:05.770Z,15.60
2022-12-25T04:24:05.775Z,16.50
2022-12-25T04:25:05.727Z,16.50
2022-12-25T04:26:05.737Z,16.20
2022-12-25T04:27:05.720Z,16.90
2022-12-25T04:28:05.737Z,17.40
2022-12-25T04:29:05.705Z,18.00
2022-12-25T04:30:05.702Z,17.40
2022-12-25T04:31:05.716Z,18.20
2022-12-25T04:32:05.677Z,19.50
2022-12-25T04:33:05.651Z,16.30
2022-12-25T04:34:05.662Z,16.50
2022-12-25T04:35:05.629Z,16.70
2022-12-25T04:36:05.639Z,16.40
2022-12-25T04:37:05.609Z,16.20
2022-12-25T04:38:05.633Z,15.80
2022-12-25T04:39:05.616Z,13.80
2022-12-25T04:40:05.596Z,17.50
2022-12-25T04:41:05.563Z,13.70
2022-12-25T04:42:05.578Z,14.50
2022-12-25T04:43:05.537Z,15.50
2022-12-25T04:44:05.586Z,17.90
2022-12-25T04:45:05.567Z,17.80
2022-12-25T04:46:05.657Z,14.80
2022-12-25T04:47:10.888Z,15.90
2022-12-25T04:48:05.535Z,17.50
2022-12-25T04:49:05.480Z,21.00
2022-12-25T04:50:05.503Z,16.70
2022-12-25T04:51:05.453Z,15.10
2022-12-25T04:52:05.496Z,13.70
2022-12-25T04:53:05.432Z,14.50
2022-12-25T04:54:05.499Z,18.20
2022-12-25T04:55:05.423Z,15.30
2022-12-25T04:56:05.440Z,14.40
2022-12-25T04:57:05.386Z,16.80
2022-12-25T04:58:05.432Z,16.20
2022-12-25T04:59:05.379Z,16.80
2022-12-25T05:00:05.383Z,16.40
2022-12-25T05:01:05.381Z,13.10
2022-12-25T05:02:05.510Z,17.00
2022-12-25T05:03:05.431Z,15.20
2022-12-25T05:04:05.320Z,16.40
2022-12-25T05:05:05.334Z,15.50
2022-12-25T05:06:05.294Z,14.30
2022-12-25T05:07:05.326Z,15.10
2022-12-25T05:08:05.281Z,15.50
2022-12-25T05:09:05.287Z,15.00
2022-12-25T05:10:05.259Z,15.90
2022-12-25T05:11:05.276Z,14.20
2022-12-25T05:12:05.247Z,16.80
2022-12-25T05:13:05.243Z,15.30
2022-12-25T05:14:05.210Z,15.80
2022-12-25T05:15:05.238Z,17.10
2022-12-25T05:16:05.258Z,15.40
2022-12-25T05:17:05.199Z,14.70
2022-12-25T05:18:05.202Z,15.40
2022-12-25T05:19:05.187Z,15.70
2022-12-25T05:20:05.142Z,15.90
2022-12-25T05:21:05.178Z,15.20
2022-12-25T05:22:05.134Z,16.00
2022-12-25T05:23:05.160Z,13.50
2022-12-25T05:24:05.106Z,15.70
2022-12-25T05:25:05.135Z,14.00
2022-12-25T05:26:05.102Z,17.70
2022-12-25T05:27:05.100Z,12.10
2022-12-25T05:28:05.060Z,12.70
2022-12-25T05:29:05.103Z,16.60
2022-12-25T05:30:05.056Z,13.40
2022-12-25T05:31:05.085Z,15.60
2022-12-25T05:32:05.028Z,17.10
2022-12-25T05:33:05.070Z,13.50
2022-12-25T05:34:05.014Z,15.10
2022-12-25T05:35:05.008Z,11.90
2022-12-25T05:36:05.007Z,14.90
2022-12-25T05:37:04.992Z,15.60
2022-12-25T05:38:04.959Z,11.80
2022-12-25T05:39:04.967Z,16.10
2022-12-25T05:40:04.956Z,14.50
2022-12-25T05:41:04.975Z,15.90
2022-12-25T05:42:04.937Z,15.80
2022-12-25T05:43:04.930Z,14.50
2022-12-25T05:44:04.896Z,14.80
2022-12-25T05:45:05.009Z,15.90
2022-12-25T05:46:04.959Z,15.70
2022-12-25T05:47:05.002Z,16.50
2022-12-25T05:48:04.853Z,14.90
2022-12-25T05:49:04.867Z,13.40
2022-12-25T05:50:04.827Z,16.50
2022-12-25T05:51:04.856Z,15.00
2022-12-25T05:52:04.814Z,17.80
2022-12-25T05:53:08.287Z,14.20
2022-12-25T05:54:04.807Z,15.70
2022-12-25T05:55:04.806Z,13.80
2022-12-25T05:56:04.790Z,16.30
2022-12-25T05:57:04.779Z,15.90
2022-12-25T05:58:04.780Z,17.30
2022-12-25T05:59:04.760Z,17.10
2022-12-25T06:00:04.755Z,18.80
2022-12-25T06:01:04.753Z,15.70
2022-12-25T06:02:04.885Z,14.40
2022-12-25T06:03:04.888Z,19.00
2022-12-25T06:04:10.311Z,15.90
2022-12-25T06:05:04.708Z,16.60
2022-12-25T06:06:04.665Z,16.50
2022-12-25T06:07:04.693Z,15.00
2022-12-25T06:08:04.655Z,14.60
2022-12-25T06:09:04.653Z,16.50
2022-12-25T06:10:04.628Z,17.00
2022-12-25T06:11:04.635Z,15.10
2022-12-25T06:12:04.596Z,15.50
2022-12-25T06:13:04.636Z,15.70
2022-12-25T06:14:04.584Z,14.60
2022-12-25T06:15:04.597Z,15.90
2022-12-25T06:16:04.590Z,14.20
2022-12-25T06:17:04.664Z,13.50
2022-12-25T06:18:04.547Z,15.90
2022-12-25T06:19:04.554Z,14.50
2022-12-25T06:20:04.511Z,15.30
2022-12-25T06:21:04.522Z,13.30
2022-12-25T06:22:04.493Z,14.60
2022-12-25T06:23:04.508Z,14.30
2022-12-25T06:24:04.703Z,12.70
2022-12-25T06:25:04.480Z,13.90
2022-12-25T06:26:04.454Z,13.10
2022-12-25T06:27:04.489Z,15.90
2022-12-25T06:28:04.442Z,14.10
2022-12-25T06:29:04.461Z,14.90
2022-12-25T06:30:04.425Z,16.00
2022-12-25T06:31:04.507Z,13.30
2022-12-25T06:32:04.488Z,15.50
2022-12-25T06:33:04.413Z,16.20
2022-12-25T06:34:04.364Z,15.70
2022-12-25T06:35:04.396Z,17.50
2022-12-25T06:36:04.343Z,13.50
2022-12-25T06:37:04.372Z,16.20
2022-12-25T06:38:04.333Z,16.00
2022-12-25T06:39:04.336Z,14.50
2022-12-25T06:40:04.387Z,15.10
2022-12-25T06:41:04.310Z,14.30
2022-12-25T06:42:04.290Z,15.90
2022-12-25T06:43:04.306Z,14.60
2022-12-25T06:44:04.264Z,14.90
2022-12-25T06:45:04.295Z,14.10
2022-12-25T06:46:04.331Z,14.80
2022-12-25T06:47:04.266Z,14.70
2022-12-25T06:48:04.214Z,12.20
2022-12-25T06:49:04.225Z,12.40
2022-12-25T06:50:04.208Z,12.20
2022-12-25T06:51:04.333Z,14.40
2022-12-25T06:52:04.189Z,15.40
2022-12-25T06:53:04.197Z,15.90
2022-12-25T06:54:04.329Z,14.10
2022-12-25T06:55:04.163Z,14.30
2022-12-25T06:56:04.132Z,13.80
2022-12-25T06:57:04.151Z,10.90
2022-12-25T06:58:04.149Z,10.20
2022-12-25T06:59:04.142Z,11.60
2022-12-25T07:00:04.090Z,12.60
2022-12-25T07:01:04.143Z,10.10
2022-12-25T07:02:04.219Z,12.90
2022-12-25T07:03:04.247Z,11.90
2022-12-25T07:04:04.071Z,9.80
2022-12-25T07:05:04.140Z,10.70
2022-12-25T07:06:04.037Z,11.60
2022-12-25T07:07:08.763Z,13.60
2022-12-25T07:08:04.037Z,12.10
2022-12-25T07:09:04.033Z,12.40
2022-12-25T07:10:04.001Z,13.10
2022-12-25T07:11:04.010Z,13.80
2022-12-25T07:12:03.970Z,12.20
2022-12-25T07:13:03.995Z,15.40
2022-12-25T07:14:03.944Z,13.40
2022-12-25T07:15:03.966Z,11.80
2022-12-25T07:16:03.982Z,12.70
2022-12-25T07:17:03.997Z,12.50
2022-12-25T07:18:03.906Z,13.60
2022-12-25T07:19:04.000Z,12.70
2022-12-25T07:20:03.888Z,13.20
2022-12-25T07:21:03.886Z,15.40
2022-12-25T07:22:03.866Z,15.10
2022-12-25T07:23:03.875Z,14.00
2022-12-25T07:24:03.875Z,15.40
2022-12-25T07:25:03.856Z,15.00
2022-12-25T07:26:03.832Z,11.80
2022-12-25T07:27:03.829Z,12.50
2022-12-25T07:28:03.816Z,13.70
2022-12-25T07:29:03.835Z,11.70
2022-12-25T07:30:03.797Z,12.20
2022-12-25T07:31:03.795Z,13.40
2022-12-25T07:32:03.850Z,11.50
2022-12-25T07:33:03.766Z,11.60
2022-12-25T07:34:03.775Z,13.60
2022-12-25T07:35:03.770Z,14.50
2022-12-25T07:36:03.715Z,11.60
2022-12-25T07:37:03.737Z,11.20
2022-12-25T07:38:03.702Z,14.20
2022-12-25T07:39:03.704Z,13.20
2022-12-25T07:40:03.673Z,13.10
2022-12-25T07:41:03.690Z,10.70
2022-12-25T07:42:03.645Z,11.00
2022-12-25T07:43:03.683Z,13.00
2022-12-25T07:44:03.628Z,9.90
2022-12-25T07:45:03.644Z,11.40
2022-12-25T07:46:03.764Z,10.10
2022-12-25T07:47:03.621Z,11.20
2022-12-25T07:48:05.887Z,13.10
2022-12-25T07:49:03.599Z,13.00
2022-12-25T07:50:03.580Z,13.90
2022-12-25T07:51:03.575Z,11.50
2022-12-25T07:52:03.554Z,12.80
2022-12-25T07:53:03.559Z,12.90
2022-12-25T07:54:03.522Z,11.10
2022-12-25T07:55:03.541Z,10.90
2022-12-25T07:56:03.505Z,12.00
2022-12-25T07:57:03.538Z,11.60
2022-12-25T07:58:03.474Z,10.40
2022-12-25T07:59:03.490Z,11.50
2022-12-25T08:00:03.474Z,11.60
2022-12-25T08:01:03.673Z,10.10
2022-12-25T08:02:03.731Z,11.10
2022-12-25T08:03:03.816Z,9.50
2022-12-25T08:04:03.510Z,10.50
2022-12-25T08:05:03.465Z,11.90
2022-12-25T08:06:03.403Z,10.00
2022-12-25T08:07:03.402Z,10.90
2022-12-25T08:08:03.411Z,10.10
2022-12-25T08:09:03.389Z,11.20
2022-12-25T08:10:03.357Z,9.70
2022-12-25T08:11:03.371Z,11.50
2022-12-25T08:12:03.340Z,10.80
2022-12-25T08:13:06.498Z,8.60
2022-12-25T08:14:03.341Z,12.80
2022-12-25T08:15:03.334Z,11.30
2022-12-25T08:16:03.298Z,10.40
2022-12-25T08:17:03.349Z,11.50
2022-12-25T08:18:03.263Z,9.70
2022-12-25T08:19:03.315Z,9.80
2022-12-25T08:20:03.245Z,11.30
2022-12-25T08:21:03.260Z,10.00
2022-12-25T08:22:03.236Z,8.80
2022-12-25T08:23:03.234Z,11.90
2022-12-25T08:24:03.291Z,8.90
2022-12-25T08:25:03.231Z,9.60
2022-12-25T08:26:05.322Z,10.60
2022-12-25T08:27:03.202Z,11.10
2022-12-25T08:28:03.159Z,12.60
2022-12-25T08:29:03.181Z,11.90
2022-12-25T08:30:03.171Z,11.60
2022-12-25T08:31:03.224Z,9.20
2022-12-25T08:32:03.115Z,10.60
2022-12-25T08:33:03.136Z,10.00
2022-12-25T08:34:03.102Z,11.40
2022-12-25T08:35:03.132Z,9.80
2022-12-25T08:36:03.106Z,10.20
2022-12-25T08:37:03.116Z,9.60
2022-12-25T08:38:03.055Z,10.20
2022-12-25T08:39:03.656Z,9.10
2022-12-25T08:40:03.058Z,10.50
2022-12-25T08:41:03.138Z,11.20
2022-12-25T08:42:03.012Z,11.70
2022-12-25T08:43:03.034Z,10.10
2022-12-25T08:44:03.023Z,11.00
2022-12-25T08:45:03.006Z,10.70
2022-12-25T08:46:02.995Z,10.50
2022-12-25T08:47:03.011Z,11.50
2022-12-25T08:48:02.955Z,7.80
2022-12-25T08:49:02.967Z,9.80
2022-12-25T08:50:02.944Z,11.40
2022-12-25T08:51:02.969Z,9.50
2022-12-25T08:52:02.962Z,10.80
2022-12-25T08:53:02.921Z,9.60
2022-12-25T08:54:02.958Z,10.90
2022-12-25T08:55:02.905Z,11.00
2022-12-25T08:56:02.864Z,10.10
2022-12-25T08:57:03.267Z,9.70
2022-12-25T08:58:02.863Z,11.70
2022-12-25T08:59:02.854Z,11.90
2022-12-25T09:00:02.823Z,12.00
2022-12-25T09:01:02.890Z,9.10
2022-12-25T09:02:02.926Z,10.90
2022-12-25T09:03:02.963Z,11.70
2022-12-25T09:04:02.783Z,11.00
2022-12-25T09:05:02.805Z,8.40
2022-12-25T09:06:02.776Z,9.70
2022-12-25T09:07:02.771Z,9.10
2022-12-25T09:08:02.750Z,9.00
2022-12-25T09:09:02.759Z,9.90
2022-12-25T09:10:02.732Z,8.50
2022-12-25T09:11:02.727Z,9.60
2022-12-25T09:12:02.701Z,8.60
2022-12-25T09:13:02.715Z,10.30
2022-12-25T09:14:02.713Z,10.80
2022-12-25T09:15:02.690Z,9.40
2022-12-25T09:16:02.665Z,10.80
2022-12-25T09:17:02.670Z,10.60
2022-12-25T09:18:02.631Z,9.20
2022-12-25T09:19:02.631Z,10.70
2022-12-25T09:20:02.651Z,14.00
2022-12-25T09:21:02.605Z,8.70
2022-12-25T09:22:02.616Z,9.80
2022-12-25T09:23:02.588Z,10.80
2022-12-25T09:24:02.603Z,11.00
2022-12-25T09:25:02.589Z,11.30
2022-12-25T09:26:02.574Z,10.90
2022-12-25T09:27:02.544Z,11.50
2022-12-25T09:28:02.550Z,10.80
2022-12-25T09:29:02.531Z,8.50
2022-12-25T09:30:02.533Z,11.40
2022-12-25T09:31:02.623Z,12.20
2022-12-25T09:32:02.510Z,10.00
2022-12-25T09:33:02.486Z,13.50
2022-12-25T09:34:02.490Z,11.20
2022-12-25T09:35:02.468Z,14.20
2022-12-25T09:36:02.494Z,12.40
2022-12-25T09:37:02.444Z,13.60
2022-12-25T09:38:02.481Z,14.40
2022-12-25T09:39:02.409Z,12.40
2022-12-25T09:40:02.436Z,13.10
2022-12-25T09:41:02.404Z,16.00
2022-12-25T09:42:02.429Z,16.70
2022-12-25T09:43:02.369Z,14.00
2022-12-25T09:44:02.388Z,15.50
2022-12-25T09:45:02.360Z,24.00
2022-12-25T09:46:02.462Z,22.30
2022-12-25T09:47:02.439Z,24.20
2022-12-25T09:48:02.349Z,30.20
2022-12-25T09:49:02.300Z,29.60
2022-12-25T09:50:02.321Z,23.00
2022-12-25T09:51:02.289Z,27.50
2022-12-25T09:52:02.324Z,27.60
2022-12-25T09:53:02.266Z,27.90
2022-12-25T09:54:02.286Z,25.80
2022-12-25T09:55:02.238Z,28.20
2022-12-25T09:56:02.255Z,26.90
2022-12-25T09:57:02.224Z,28.30
2022-12-25T09:58:02.249Z,32.00
2022-12-25T09:59:02.203Z,33.80
2022-12-25T10:00:02.260Z,33.60
2022-12-25T10:01:02.182Z,47.90
2022-12-25T10:02:02.350Z,54.50
2022-12-25T10:03:02.468Z,49.30
2022-12-25T10:04:02.187Z,61.50
2022-12-25T10:05:02.153Z,55.50
2022-12-25T10:06:02.148Z,45.20
2022-12-25T10:07:02.110Z,48.00
2022-12-25T10:08:02.130Z,39.30
2022-12-25T10:09:02.118Z,36.80
2022-12-25T10:10:02.114Z,35.90
2022-12-25T10:11:02.082Z,35.70
2022-12-25T10:12:02.095Z,34.70
2022-12-25T10:13:02.049Z,32.00
2022-12-25T10:14:02.094Z,40.60
2022-12-25T10:15:02.061Z,108.00
2022-12-25T10:16:02.103Z,45.50
2022-12-25T10:17:02.008Z,73.80
2022-12-25T10:18:02.035Z,61.10
2022-12-25T10:19:02.145Z,47.50
2022-12-25T10:20:02.111Z,91.10
2022-12-25T10:21:02.260Z,45.80
2022-12-25T10:22:02.169Z,100.10
2022-12-25T10:23:03.147Z,52.00
2022-12-25T10:24:02.113Z,48.00
2022-12-25T10:25:02.023Z,57.90
2022-12-25T10:26:03.151Z,46.90
2022-12-25T10:27:02.065Z,87.50
2022-12-25T10:28:01.932Z,62.20
2022-12-25T10:29:01.900Z,68.80
2022-12-25T10:30:01.912Z,72.60
2022-12-25T10:31:01.957Z,86.90
2022-12-25T10:32:01.908Z,70.20
2022-12-25T10:33:01.880Z,50.10
2022-12-25T10:34:01.875Z,48.70
2022-12-25T10:35:01.892Z,48.20
2022-12-25T10:36:01.839Z,47.40
2022-12-25T10:37:01.818Z,45.00
2022-12-25T10:38:01.825Z,55.40
2022-12-25T10:39:01.800Z,42.50
2022-12-25T10:40:01.902Z,62.50
2022-12-25T10:41:01.793Z,66.10
2022-12-25T10:42:01.806Z,56.10
2022-12-25T10:43:01.738Z,56.80
2022-12-25T10:44:01.753Z,53.20
2022-12-25T10:45:01.717Z,53.30
2022-12-25T10:46:01.789Z,59.50
2022-12-25T10:47:01.694Z,49.90
2022-12-25T10:48:06.781Z,43.90
2022-12-25T10:49:02.717Z,45.80
2022-12-25T10:50:02.173Z,47.50
2022-12-25T10:51:01.752Z,42.90
2022-12-25T10:52:01.712Z,40.20
2022-12-25T10:53:01.669Z,44.90
2022-12-25T10:54:01.659Z,45.10
2022-12-25T10:55:01.611Z,46.30
2022-12-25T10:56:01.622Z,42.20
2022-12-25T10:57:01.597Z,44.60
2022-12-25T10:58:01.620Z,51.00
2022-12-25T10:59:01.599Z,44.30
2022-12-25T11:00:01.628Z,45.90
2022-12-25T11:01:01.589Z,42.70
2022-12-25T11:02:01.639Z,35.30
2022-12-25T11:03:01.944Z,44.40
2022-12-25T11:04:01.641Z,40.40
2022-12-25T11:05:01.555Z,38.60
2022-12-25T11:06:01.520Z,41.60
2022-12-25T11:07:01.500Z,45.20
2022-12-25T11:08:01.499Z,40.90
2022-12-25T11:09:01.457Z,45.00
2022-12-25T11:10:05.104Z,46.70
2022-12-25T11:11:01.519Z,42.30
2022-12-25T11:12:01.462Z,41.10
2022-12-25T11:13:01.419Z,44.70
2022-12-25T11:14:01.453Z,44.10
2022-12-25T11:15:01.411Z,43.40
2022-12-25T11:16:01.451Z,49.10
2022-12-25T11:17:01.385Z,51.90
2022-12-25T11:18:01.477Z,48.70
2022-12-25T11:19:01.411Z,57.70
2022-12-25T11:20:01.414Z,55.50
2022-12-25T11:21:01.416Z,54.00
2022-12-25T11:22:01.414Z,57.10
2022-12-25T11:23:01.345Z,65.00
2022-12-25T11:24:01.401Z,60.20
2022-12-25T11:25:01.661Z,58.00
2022-12-25T11:26:01.451Z,63.60
2022-12-25T11:27:01.526Z,65.50
2022-12-25T11:28:01.423Z,75.80
2022-12-25T11:29:01.353Z,75.80
2022-12-25T11:30:01.802Z,79.40
2022-12-25T11:31:01.549Z,88.50
2022-12-25T11:32:01.437Z,87.10
2022-12-25T11:33:01.274Z,73.90
2022-12-25T11:34:01.335Z,79.10
2022-12-25T11:35:01.208Z,80.30
2022-12-25T11:36:01.215Z,95.30
2022-12-25T11:37:01.228Z,82.50
2022-12-25T11:38:01.204Z,89.90
2022-12-25T11:39:01.156Z,106.20
2022-12-25T11:40:01.161Z,72.30
2022-12-25T11:41:01.132Z,57.00
2022-12-25T11:42:01.149Z,64.90
2022-12-25T11:43:07.572Z,67.00
2022-12-25T11:44:01.136Z,63.30
2022-12-25T11:45:01.088Z,63.10
2022-12-25T11:46:01.100Z,70.70
2022-12-25T11:47:01.130Z,65.20
2022-12-25T11:48:01.129Z,64.10
2022-12-25T11:49:01.033Z,68.30
2022-12-25T11:50:01.347Z,71.40
2022-12-25T11:51:01.027Z,69.30
2022-12-25T11:52:01.024Z,63.30
2022-12-25T11:53:01.018Z,66.60
2022-12-25T11:54:01.018Z,65.80
2022-12-25T11:55:01.055Z,66.90
2022-12-25T11:56:00.992Z,65.60
2022-12-25T11:57:01.017Z,74.20
2022-12-25T11:58:00.959Z,66.80
2022-12-25T11:59:00.955Z,68.20
2022-12-25T12:00:00.950Z,71.10
2022-12-25T12:01:00.923Z,76.90
2022-12-25T12:02:01.091Z,78.90
2022-12-25T12:03:02.675Z,86.80
2022-12-25T12:04:01.229Z,95.10
2022-12-25T12:05:01.232Z,76.80
2022-12-25T12:06:02.922Z,80.60
2022-12-25T12:07:00.854Z,78.50
2022-12-25T12:08:00.902Z,78.80
2022-12-25T12:09:01.041Z,85.70
2022-12-25T12:10:00.872Z,83.90
2022-12-25T12:11:00.835Z,89.20
2022-12-25T12:12:00.848Z,91.40
2022-12-25T12:13:00.787Z,86.70
2022-12-25T12:14:01.086Z,82.50
2022-12-25T12:15:00.787Z,82.60
2022-12-25T12:16:00.849Z,84.40
2022-12-25T12:17:00.750Z,94.70
2022-12-25T12:18:00.774Z,92.00
2022-12-25T12:19:00.717Z,92.20
2022-12-25T12:20:00.739Z,93.60
2022-12-25T12:21:00.784Z,90.00
2022-12-25T12:22:00.715Z,92.60
2022-12-25T12:23:00.703Z,97.00
2022-12-25T12:24:00.709Z,87.10
2022-12-25T12:25:00.698Z,95.80
2022-12-25T12:26:00.698Z,96.50
2022-12-25T12:27:00.659Z,108.00
2022-12-25T12:28:05.352Z,101.10
2022-12-25T12:29:00.640Z,97.20
2022-12-25T12:30:00.652Z,100.10
2022-12-25T12:31:00.616Z,84.20
2022-12-25T12:32:00.725Z,86.50
2022-12-25T12:33:00.581Z,87.30
2022-12-25T12:34:00.594Z,84.90
2022-12-25T12:35:00.548Z,88.70
2022-12-25T12:36:00.561Z,84.60
2022-12-25T12:37:00.520Z,81.10
2022-12-25T12:38:00.544Z,84.00
2022-12-25T12:41:14.730Z,89.00
2022-12-25T12:42:15.633Z,87.10
2022-12-25T12:43:15.655Z,82.80
2022-12-25T12:44:15.615Z,87.60
2022-12-25T12:45:15.633Z,90.60
2022-12-25T12:46:15.636Z,83.10
2022-12-25T12:47:15.589Z,79.50
2022-12-25T12:48:15.555Z,85.20
2022-12-25T12:49:15.577Z,81.30
2022-12-25T12:50:15.563Z,77.80
2022-12-25T12:51:15.558Z,72.80
2022-12-25T12:52:15.513Z,78.00
2022-12-25T12:53:15.524Z,78.90
2022-12-25T12:54:15.517Z,87.10
2022-12-25T12:55:15.537Z,83.80